Time;durP1;ratioP1;P1;durP2;ratioP2;P2;SDS_P1;SDS_P2;PMS_P1;PMS_P2;Temp;Humidity;BMP_temperature;BMP_pressure;BME280_temperature;BME280_humidity;BME280_pressure;Samples;Min_cycle;Max_cycle;Signal;HPM_P1;HPM_P2
2022/12/31 00:02:10;;;;;;;55.47;13.05;;;;;;;10.99;100.00;95222.31;5002816;28;20056;-88
2022/12/31 00:05:18;;;;;;;271.77;20.80;;;;;;;11.35;100.00;95229.69;5020024;28;20351;-88
2022/12/31 00:07:49;;;;;;;87.75;14.40;;;;;;;11.32;100.00;95220.50;5019790;28;20030;-88
2022/12/31 00:10:14;;;;;;;454.48;28.60;;;;;;;11.22;100.00;95231.69;5002658;28;20454;-89
2022/12/31 00:12:39;;;;;;;116.25;13.38;;;;;;;11.21;100.00;95227.50;5002643;28;20061;-88
2022/12/31 00:15:05;;;;;;;315.50;24.25;;;;;;;10.80;100.00;95232.34;4986722;28;20076;-88
2022/12/31 00:17:31;;;;;;;424.02;32.30;;;;;;;10.63;100.00;95238.47;4986327;28;20030;-89
2022/12/31 00:19:56;;;;;;;482.05;38.20;;;;;;;10.38;100.00;95231.09;4986383;28;20034;-88
2022/12/31 00:22:22;;;;;;;38.47;12.73;;;;;;;11.22;100.00;95233.53;4986744;28;20116;-88
2022/12/31 00:24:48;;;;;;;98.45;14.43;;;;;;;11.52;100.00;95232.19;4986085;28;20502;-88
2022/12/31 00:27:13;;;;;;;276.73;24.60;;;;;;;10.72;100.00;95223.09;5002801;28;20033;-87
2022/12/31 00:29:39;;;;;;;264.10;26.70;;;;;;;10.60;100.00;95221.41;5019994;28;20112;-88
2022/12/31 00:32:05;;;;;;;240.02;22.42;;;;;;;10.94;100.00;95225.69;4985900;28;20042;-88
2022/12/31 00:34:30;;;;;;;193.32;16.35;;;;;;;10.86;100.00;95218.28;5002496;28;20078;-88
2022/12/31 00:36:55;;;;;;;49.35;10.30;;;;;;;10.89;100.00;95207.28;5002595;28;20030;-87
2022/12/31 00:39:21;;;;;;;30.40;11.05;;;;;;;10.64;100.00;95207.84;5002803;28;20037;-88
2022/12/31 00:41:46;;;;;;;45.80;11.15;;;;;;;10.91;100.00;95209.66;5002432;28;20041;-88
2022/12/31 00:44:12;;;;;;;178.80;16.48;;;;;;;10.55;100.00;95213.50;5002186;28;20046;-88
2022/12/31 00:46:38;;;;;;;237.80;17.52;;;;;;;10.64;100.00;95213.06;5002042;28;20034;-88
2022/12/31 00:49:04;;;;;;;53.20;10.57;;;;;;;10.98;100.00;95220.72;4985078;28;20041;-88
2022/12/31 00:51:29;;;;;;;361.77;23.50;;;;;;;10.92;100.00;95227.75;4986180;28;20041;-88
2022/12/31 00:53:56;;;;;;;35.60;10.60;;;;;;;11.33;100.00;95224.69;4986404;28;20069;-88
2022/12/31 00:56:24;;;;;;;40.75;11.65;;;;;;;11.50;100.00;95229.03;4985779;28;20040;-88
2022/12/31 00:58:50;;;;;;;202.63;16.08;;;;;;;10.86;100.00;95226.13;4985728;28;20041;-88
2022/12/31 01:01:42;;;;;;;68.10;14.48;;;;;;;9.81;100.00;95233.75;4985327;28;20037;-88
2022/12/31 01:04:13;;;;;;;19.05;9.88;;;;;;;10.21;100.00;95231.16;4998186;28;20062;-88
2022/12/31 01:06:40;;;;;;;641.55;37.75;;;;;;;10.03;100.00;95227.78;4985852;28;20030;-88
2022/12/31 01:09:06;;;;;;;27.30;9.68;;;;;;;10.48;100.00;95227.81;4985430;28;20099;-87
2022/12/31 01:11:32;;;;;;;16.25;9.73;;;;;;;10.43;100.00;95229.34;5002353;28;20030;-88
2022/12/31 01:14:01;;;;;;;20.88;9.07;;;;;;;10.10;100.00;95236.25;4985467;28;20501;-89
2022/12/31 01:16:38;;;;;;;24.48;11.45;;;;;;;10.45;100.00;95240.38;4985138;28;20033;-89
2022/12/31 01:19:08;;;;;;;35.45;13.05;;;;;;;10.68;100.00;95240.38;4994752;28;20072;-89
2022/12/31 01:21:34;;;;;;;26.35;13.10;;;;;;;10.85;100.00;95237.66;5003516;28;20460;-88
2022/12/31 01:24:00;;;;;;;35.63;15.43;;;;;;;10.88;100.00;95237.94;5024976;28;20389;-88
2022/12/31 01:26:26;;;;;;;27.23;12.38;;;;;;;10.82;100.00;95244.19;5012382;28;20030;-89
2022/12/31 01:28:51;;;;;;;28.08;11.90;;;;;;;10.46;100.00;95249.00;5029795;28;20106;-88
2022/12/31 01:31:19;;;;;;;39.70;12.98;;;;;;;10.56;100.00;95245.75;5009070;28;20034;-88
2022/12/31 01:33:45;;;;;;;554.85;34.08;;;;;;;10.39;100.00;95248.41;5012758;28;20049;-89
2022/12/31 01:36:13;;;;;;;240.88;18.15;;;;;;;10.66;100.00;95245.06;5020256;28;20031;-88
2022/12/31 01:38:39;;;;;;;115.90;11.30;;;;;;;10.78;100.00;95253.59;5020207;28;20026;-88
2022/12/31 01:41:05;;;;;;;289.88;26.58;;;;;;;9.94;100.00;95250.16;5020303;28;20029;-88
2022/12/31 01:43:44;;;;;;;258.13;22.55;;;;;;;9.68;100.00;95252.41;5020697;28;20120;-88
2022/12/31 01:46:12;;;;;;;55.90;10.13;;;;;;;9.78;100.00;95252.56;5011059;28;20080;-87
2022/12/31 01:48:37;;;;;;;137.60;16.10;;;;;;;10.02;100.00;95260.25;5000454;28;20041;-88
2022/12/31 01:51:04;;;;;;;19.35;9.52;;;;;;;10.31;100.00;95263.47;5000684;28;20033;-88
2022/12/31 01:53:30;;;;;;;241.32;21.10;;;;;;;9.47;100.00;95255.53;5000679;28;20030;-88
2022/12/31 01:55:57;;;;;;;25.33;11.88;;;;;;;10.19;100.00;95260.22;4984500;28;20030;-88
2022/12/31 01:58:32;;;;;;;22.67;10.65;;;;;;;10.50;100.00;95265.84;5018117;28;20032;-88
2022/12/31 02:00:58;;;;;;;33.10;11.55;;;;;;;10.00;100.00;95263.09;5000508;28;20141;-88
2022/12/31 02:03:24;;;;;;;30.33;11.68;;;;;;;9.78;100.00;95262.25;4984481;28;20451;-88
2022/12/31 02:05:58;;;;;;;29.75;11.13;;;;;;;10.79;100.00;95270.91;5000444;28;20064;-88
2022/12/31 02:08:24;;;;;;;20.30;9.27;;;;;;;10.75;100.00;95272.41;5017648;28;20026;-88
2022/12/31 02:10:49;;;;;;;28.73;10.50;;;;;;;10.88;100.00;95277.25;5017456;28;20048;-88
2022/12/31 02:13:15;;;;;;;25.35;8.80;;;;;;;10.80;100.00;95277.72;5000335;28;20120;-88
2022/12/31 02:15:49;;;;;;;24.67;9.82;;;;;;;10.71;100.00;95272.13;5000309;28;20021;-88
2022/12/31 02:18:15;;;;;;;26.75;8.73;;;;;;;11.08;100.00;95275.91;5000347;28;20029;-88
2022/12/31 02:20:49;;;;;;;25.13;8.60;;;;;;;11.55;100.00;95274.47;4999847;28;20034;-88
2022/12/31 02:23:29;;;;;;;18.52;8.52;;;;;;;11.65;100.00;95270.34;5017462;28;20049;-88
2022/12/31 02:26:03;;;;;;;24.98;11.20;;;;;;;11.24;100.00;95268.19;5000133;28;20025;-88
2022/12/31 02:28:54;;;;;;;29.95;11.32;;;;;;;11.38;100.00;95269.34;5017449;28;20026;-88
2022/12/31 02:31:31;;;;;;;23.95;9.98;;;;;;;11.36;100.00;95271.44;5017253;28;20034;-88
2022/12/31 02:34:08;;;;;;;657.22;36.72;;;;;;;10.56;100.00;95270.09;5000093;28;20032;-88
2022/12/31 02:36:37;;;;;;;21.17;10.10;;;;;;;10.53;100.00;95281.09;5000081;28;20057;-88
2022/12/31 02:39:05;;;;;;;28.65;10.07;;;;;;;10.76;100.00;95279.25;5000200;28;20121;-88
2022/12/31 02:41:48;;;;;;;508.35;29.10;;;;;;;9.70;100.00;95274.72;5000082;28;20033;-88
2022/12/31 02:44:30;;;;;;;137.52;14.30;;;;;;;10.25;100.00;95274.94;5002534;28;20439;-88
2022/12/31 02:47:07;;;;;;;294.00;19.60;;;;;;;9.46;100.00;95274.84;4983770;28;20116;-88
2022/12/31 02:49:58;;;;;;;181.68;17.15;;;;;;;10.08;100.00;95274.19;5017778;28;20458;-88
2022/12/31 02:52:43;;;;;;;84.18;10.60;;;;;;;10.44;100.00;95285.16;4999969;28;20022;-88
2022/12/31 02:55:16;;;;;;;251.98;18.52;;;;;;;9.24;100.00;95282.59;4999634;28;20034;-88
2022/12/31 02:58:04;;;;;;;211.45;18.23;;;;;;;8.98;100.00;95286.59;5017148;28;20316;-88
2022/12/31 03:03:16;;;;;;;19.13;8.68;;;;;;;9.37;100.00;95297.22;5002732;28;20072;-88
2022/12/31 03:05:42;;;;;;;25.08;10.70;;;;;;;9.67;100.00;95288.28;4999844;28;20022;-88
2022/12/31 03:08:08;;;;;;;26.55;12.18;;;;;;;9.35;100.00;95283.59;4999488;28;20030;-88
2022/12/31 03:10:34;;;;;;;45.78;10.80;;;;;;;9.86;100.00;95298.47;4999645;28;20034;-88
2022/12/31 03:12:59;;;;;;;139.05;14.52;;;;;;;10.01;100.00;95303.16;4987051;28;20113;-87
2022/12/31 03:15:30;;;;;;;71.93;11.50;;;;;;;10.24;100.00;95310.03;5003515;28;20057;-87
2022/12/31 03:17:58;;;;;;;144.02;14.50;;;;;;;10.06;100.00;95305.06;5003232;28;20022;-88
2022/12/31 03:23:32;;;;;;;397.95;27.83;;;;;;;9.71;100.00;95307.69;5020621;28;20041;-88
2022/12/31 03:25:59;;;;;;;743.75;50.72;;;;;;;9.12;100.00;95305.41;5003242;28;20112;-88
2022/12/31 03:28:26;;;;;;;118.65;13.85;;;;;;;9.22;100.00;95313.44;4987115;28;20048;-88
2022/12/31 03:30:54;;;;;;;31.08;12.32;;;;;;;9.55;100.00;95311.09;4986841;28;20029;-88
2022/12/31 03:33:21;;;;;;;29.52;11.43;;;;;;;9.65;100.00;95313.06;5003241;28;20120;-88
2022/12/31 03:35:47;;;;;;;16.48;8.02;;;;;;;9.75;100.00;95319.28;4986736;28;20068;-87
2022/12/31 03:38:13;;;;;;;287.15;18.13;;;;;;;9.34;100.00;95316.00;4986958;28;20065;-87
2022/12/31 03:40:42;;;;;;;31.80;7.78;;;;;;;9.95;100.00;95320.63;5003037;28;20025;-88
2022/12/31 03:43:08;;;;;;;453.63;28.33;;;;;;;8.99;100.00;95317.75;5003078;28;20026;-88
2022/12/31 03:45:34;;;;;;;148.55;12.82;;;;;;;9.40;100.00;95320.28;4986607;28;20022;-87
2022/12/31 03:48:00;;;;;;;81.72;10.07;;;;;;;9.70;100.00;95316.56;4986283;28;20123;-88
2022/12/31 03:50:26;;;;;;;55.53;9.57;;;;;;;9.33;100.00;95333.50;4986651;28;20026;-88
2022/12/31 03:52:51;;;;;;;259.77;19.80;;;;;;;8.81;100.00;95329.16;5003097;28;20032;-88
2022/12/31 03:55:29;;;;;;;21.45;8.95;;;;;;;9.44;100.00;95333.69;5002774;28;20050;-88
2022/12/31 03:57:54;;;;;;;17.52;8.68;;;;;;;9.45;100.00;95330.81;5002553;28;20394;-87
2022/12/31 04:00:21;;;;;;;20.10;9.75;;;;;;;9.48;100.00;95319.91;5002699;28;20029;-88
2022/12/31 04:02:47;;;;;;;22.38;8.48;;;;;;;9.82;100.00;95324.34;5007769;28;20029;-88
2022/12/31 04:05:55;;;;;;;15.82;7.57;;;;;;;10.18;100.00;95326.69;5010545;28;21411;-87
2022/12/31 04:08:21;;;;;;;19.75;8.60;;;;;;;9.41;100.00;95324.47;5016419;28;20103;-88
2022/12/31 04:10:47;;;;;;;15.45;8.68;;;;;;;9.54;100.00;95330.44;5008504;28;20399;-90
2022/12/31 04:13:12;;;;;;;73.45;9.20;;;;;;;9.67;100.00;95332.75;5005912;28;20048;-87
2022/12/31 04:15:37;;;;;;;522.08;27.98;;;;;;;8.64;100.00;95326.47;5022238;28;20076;-88
2022/12/31 04:18:03;;;;;;;187.57;17.45;;;;;;;8.34;100.00;95322.19;5039394;28;20029;-89
2022/12/31 04:20:28;;;;;;;98.45;14.63;;;;;;;8.53;100.00;95333.31;5005869;28;20431;-89
2022/12/31 04:22:54;;;;;;;22.13;10.27;;;;;;;8.69;100.00;95325.78;5021869;28;20075;-89
2022/12/31 04:25:22;;;;;;;83.95;11.52;;;;;;;9.26;100.00;95321.59;5021828;28;20021;-87
2022/12/31 04:27:48;;;;;;;27.17;13.43;;;;;;;9.22;100.00;95316.03;5005214;28;20048;-90
2022/12/31 04:30:14;;;;;;;35.83;15.10;;;;;;;9.83;100.00;95314.66;5005211;28;20033;-87
2022/12/31 04:32:39;;;;;;;58.47;17.92;;;;;;;10.00;100.00;95315.44;5021502;28;20030;-90
2022/12/31 04:35:35;;;;;;;51.03;16.45;;;;;;;10.36;100.00;95317.00;5021209;28;20035;-90
2022/12/31 04:38:00;;;;;;;43.25;16.52;;;;;;;10.27;100.00;95314.00;5021187;28;20060;-87
2022/12/31 04:40:26;;;;;;;33.85;15.40;;;;;;;10.44;100.00;95320.00;5005143;28;20063;-90
2022/12/31 04:42:51;;;;;;;30.77;14.70;;;;;;;9.76;100.00;95320.06;5004951;28;20021;-90
2022/12/31 04:45:17;;;;;;;34.42;13.95;;;;;;;10.32;100.00;95321.91;5004885;28;20025;-90
2022/12/31 04:47:42;;;;;;;49.97;17.65;;;;;;;9.82;100.00;95324.34;5004800;28;20025;-89
2022/12/31 04:50:08;;;;;;;32.08;14.68;;;;;;;10.02;100.00;95331.72;5005261;28;20101;-89
2022/12/31 04:52:33;;;;;;;37.25;13.73;;;;;;;9.97;100.00;95330.84;5005143;28;20438;-90
2022/12/31 04:54:59;;;;;;;24.05;10.63;;;;;;;9.79;100.00;95335.28;5004802;28;20450;-87
2022/12/31 04:57:27;;;;;;;53.88;10.88;;;;;;;10.07;100.00;95346.69;5004908;28;20056;-89
2022/12/31 04:59:53;;;;;;;23.77;11.05;;;;;;;9.76;100.00;95347.03;5005361;28;20029;-89
2022/12/31 05:02:18;;;;;;;26.20;11.65;;;;;;;9.51;100.00;95346.63;5005339;28;20021;-89
2022/12/31 05:04:43;;;;;;;43.83;16.00;;;;;;;9.53;100.00;95349.78;5005040;28;20017;-89
2022/12/31 05:07:09;;;;;;;43.65;17.13;;;;;;;9.95;100.00;95354.66;5020930;28;20025;-89
2022/12/31 05:09:34;;;;;;;53.60;17.08;;;;;;;10.23;100.00;95360.00;5004997;28;20124;-89
2022/12/31 05:12:00;;;;;;;39.53;14.95;;;;;;;9.91;100.00;95356.16;5020893;28;20446;-89
2022/12/31 05:14:25;;;;;;;37.55;15.18;;;;;;;10.21;100.00;95368.13;5004510;28;20029;-89
2022/12/31 05:16:51;;;;;;;35.65;15.20;;;;;;;9.98;100.00;95364.63;5004800;28;20028;-89
2022/12/31 05:19:17;;;;;;;57.58;20.77;;;;;;;10.14;100.00;95368.28;5004768;28;20033;-90
2022/12/31 05:22:27;;;;;;;50.15;18.38;;;;;;;10.56;100.00;95374.91;5004503;28;20133;-90
2022/12/31 05:24:31;;;;;;;44.45;15.40;;;;;;;10.59;100.00;95379.66;5023345;28;20030;-90
2022/12/31 05:26:56;;;;;;;45.15;16.42;;;;;;;10.74;100.00;95373.03;5020311;28;20091;-90
2022/12/31 05:29:22;;;;;;;49.75;17.10;;;;;;;10.86;100.00;95383.44;5003768;28;20029;-90
2022/12/31 05:31:47;;;;;;;41.95;14.50;;;;;;;10.98;100.00;95384.09;5004367;28;20430;-90
2022/12/31 05:34:12;;;;;;;49.03;19.20;;;;;;;10.29;100.00;95390.50;5003606;28;20338;-90
2022/12/31 05:36:38;;;;;;;46.70;17.63;;;;;;;10.73;100.00;95389.81;5020079;28;20072;-89
2022/12/31 05:39:03;;;;;;;44.13;17.10;;;;;;;10.87;100.00;95395.50;5020519;28;20041;-89
2022/12/31 05:41:29;;;;;;;38.25;16.23;;;;;;;10.72;100.00;95388.22;5004312;28;20029;-88
2022/12/31 05:43:54;;;;;;;39.35;13.80;;;;;;;11.12;100.00;95396.84;5001035;28;20339;-87
2022/12/31 05:46:20;;;;;;;47.55;16.88;;;;;;;11.36;100.00;95399.19;4984637;28;20018;-88
2022/12/31 05:48:45;;;;;;;28.77;12.35;;;;;;;11.38;100.00;95402.34;4984705;28;20032;-87
2022/12/31 05:51:10;;;;;;;31.85;12.38;;;;;;;11.27;100.00;95404.09;5017815;28;20039;-87
2022/12/31 05:53:36;;;;;;;49.35;15.38;;;;;;;10.90;100.00;95408.13;5040169;28;20029;-88
2022/12/31 05:56:01;;;;;;;27.42;11.80;;;;;;;11.03;100.00;95412.19;5057479;28;20111;-87
2022/12/31 05:58:27;;;;;;;21.52;10.18;;;;;;;10.99;100.00;95409.28;5039907;28;20075;-87
2022/12/31 06:00:53;;;;;;;32.60;10.20;;;;;;;10.97;100.00;95415.81;5040288;28;20029;-90
2022/12/31 06:03:19;;;;;;;26.05;11.55;;;;;;;10.74;100.00;95420.22;5057604;28;20394;-90
2022/12/31 06:05:44;;;;;;;22.67;9.77;;;;;;;10.77;100.00;95429.44;5022901;28;20075;-90
2022/12/31 06:08:11;;;;;;;26.50;12.45;;;;;;;10.67;100.00;95430.88;5039883;28;20079;-90
2022/12/31 06:10:36;;;;;;;31.27;12.27;;;;;;;10.93;100.00;95436.47;5039606;28;20361;-87
2022/12/31 06:13:01;;;;;;;26.00;11.60;;;;;;;10.81;100.00;95430.53;5039803;28;20029;-90
2022/12/31 06:15:27;;;;;;;28.23;11.55;;;;;;;10.99;100.00;95432.09;5039402;28;20037;-90
2022/12/31 06:17:52;;;;;;;26.13;11.45;;;;;;;11.07;100.00;95436.13;5057049;28;20040;-89
2022/12/31 06:20:18;;;;;;;28.10;11.02;;;;;;;10.76;100.00;95441.78;5024895;28;20037;-87
2022/12/31 06:22:43;;;;;;;38.38;13.35;;;;;;;11.07;100.00;95444.78;5037471;28;20025;-90
2022/12/31 06:25:09;;;;;;;32.75;13.18;;;;;;;11.17;100.00;95441.50;5019650;28;20488;-87
2022/12/31 06:27:34;;;;;;;29.63;13.35;;;;;;;11.33;100.00;95445.06;5019639;28;20103;-87
2022/12/31 06:29:59;;;;;;;34.85;14.50;;;;;;;11.22;100.00;95454.66;5019719;28;20086;-87
2022/12/31 06:32:25;;;;;;;31.13;13.48;;;;;;;11.45;100.00;95453.59;5037352;28;20431;-87
2022/12/31 06:34:51;;;;;;;24.88;11.80;;;;;;;11.60;100.00;95460.88;5037061;28;20065;-88
2022/12/31 06:37:16;;;;;;;29.35;12.07;;;;;;;11.29;100.00;95459.72;5019490;28;20072;-87
2022/12/31 06:39:41;;;;;;;24.75;10.60;;;;;;;11.18;100.00;95462.22;5019390;28;20029;-87
2022/12/31 06:42:07;;;;;;;31.65;13.88;;;;;;;10.94;100.00;95460.88;5037039;28;20029;-87
2022/12/31 06:44:32;;;;;;;40.88;14.85;;;;;;;11.14;100.00;95461.13;5037144;28;20156;-87
2022/12/31 06:46:58;;;;;;;36.28;13.52;;;;;;;11.18;100.00;95464.84;5021700;28;20064;-87
2022/12/31 06:49:23;;;;;;;28.33;11.65;;;;;;;11.25;100.00;95461.25;5041256;28;20040;-87
2022/12/31 06:51:48;;;;;;;36.03;13.25;;;;;;;10.55;100.00;95466.88;5041117;28;20037;-87
2022/12/31 06:54:14;;;;;;;31.55;12.50;;;;;;;10.91;100.00;95474.47;5023586;28;20339;-87
2022/12/31 06:56:40;;;;;;;27.35;11.98;;;;;;;10.89;100.00;95479.94;5006937;28;20030;-87
2022/12/31 06:59:08;;;;;;;28.70;12.05;;;;;;;10.70;100.00;95485.47;5023315;28;20032;-87
2022/12/31 07:02:00;;;;;;;43.53;13.13;;;;;;;10.88;100.00;95487.00;5023467;28;20025;-86
2022/12/31 07:04:48;;;;;;;25.70;10.63;;;;;;;11.20;100.00;95493.47;5021885;28;20025;-89
2022/12/31 07:07:52;;;;;;;23.95;11.93;;;;;;;11.40;100.00;95511.28;5032297;28;20037;-88
2022/12/31 07:10:20;;;;;;;;;;;;;;;11.11;100.00;95508.81;4960624;29;20130;-87
2022/12/31 07:13:18;;;;;;;33.22;12.25;;;;;;;11.21;100.00;95518.66;4944505;29;20005;-86
2022/12/31 07:16:20;;;;;;;34.72;13.40;;;;;;;11.54;100.00;95509.06;5011918;28;20044;-85
2022/12/31 07:18:50;;;;;;;42.75;15.07;;;;;;;11.42;100.00;95526.81;5040272;28;20032;-85
2022/12/31 07:21:20;;;;;;;43.03;16.98;;;;;;;11.57;100.00;95526.19;5022593;28;20026;-86
2022/12/31 07:23:46;;;;;;;32.65;13.65;;;;;;;11.23;100.00;95531.53;5006152;28;20037;-86
2022/12/31 07:26:15;;;;;;;38.70;14.80;;;;;;;11.81;100.00;95528.56;5022388;28;20029;-86
2022/12/31 07:28:52;;;;;;;41.30;16.13;;;;;;;11.68;100.00;95534.97;5040052;28;20068;-89
2022/12/31 07:31:23;;;;;;;36.55;14.52;;;;;;;11.73;100.00;95538.44;5039955;28;20029;-89
2022/12/31 07:33:58;;;;;;;36.80;13.80;;;;;;;11.88;100.00;95529.16;5040116;28;20033;-86
2022/12/31 07:36:49;;;;;;;35.92;16.10;;;;;;;12.12;100.00;95534.16;5005978;28;20034;-87
2022/12/31 07:39:33;;;;;;;37.22;13.55;;;;;;;11.79;100.00;95539.28;5022463;28;20124;-86
2022/12/31 07:42:24;;;;;;;44.78;15.30;;;;;;;12.01;100.00;95538.50;5039989;28;20033;-87
2022/12/31 07:45:01;;;;;;;42.42;16.35;;;;;;;12.04;100.00;95535.38;5006375;28;20025;-87
2022/12/31 07:47:27;;;;;;;44.42;16.35;;;;;;;12.14;100.00;95553.09;5022197;28;20047;-86
2022/12/31 07:49:56;;;;;;;35.35;15.70;;;;;;;12.27;100.00;95554.53;5022372;28;20080;-88
2022/12/31 07:52:25;;;;;;;42.33;17.00;;;;;;;11.95;100.00;95547.34;5006076;28;20029;-88
2022/12/31 07:54:50;;;;;;;39.45;15.63;;;;;;;12.30;100.00;95559.28;5022891;28;20029;-87
2022/12/31 07:57:18;;;;;;;41.03;17.13;;;;;;;12.53;100.00;95557.38;5006102;28;20131;-88
2022/12/31 07:59:56;;;;;;;35.67;17.70;;;;;;;11.97;100.00;95548.69;5006582;28;20029;-88
2022/12/31 08:02:51;;;;;;;37.85;15.80;;;;;;;12.36;100.00;95560.13;5022484;28;20025;-88
2022/12/31 08:05:34;;;;;;;44.28;17.15;;;;;;;12.80;100.00;95564.44;5005228;28;20041;-88
2022/12/31 08:08:27;;;;;;;39.85;15.98;;;;;;;12.86;100.00;95576.59;5006291;28;20029;-88
2022/12/31 08:11:03;;;;;;;28.38;13.32;;;;;;;12.58;100.00;95579.25;5031526;28;20029;-89
2022/12/31 08:13:29;;;;;;;28.33;13.20;;;;;;;12.34;100.00;95575.34;5002542;28;20049;-88
2022/12/31 08:15:55;;;;;;;30.15;13.95;;;;;;;12.31;100.00;95579.28;4986420;28;20026;-88
2022/12/31 08:18:21;;;;;;;30.63;14.48;;;;;;;12.58;100.00;95578.47;5002323;28;20033;-89
2022/12/31 08:21:13;;;;;;;26.27;13.80;;;;;;;12.58;100.00;95583.72;4986485;28;20060;-89
2022/12/31 08:24:22;;;;;;;30.98;13.75;;;;;;;13.03;100.00;95586.19;5020086;28;20494;-88
2022/12/31 08:27:15;;;;;;;34.97;15.00;;;;;;;12.33;100.00;95584.25;4980727;28;20136;-89
2022/12/31 08:30:36;;;;;;;29.80;14.48;;;;;;;12.97;100.00;95593.25;4905219;29;20112;-88
2022/12/31 08:33:29;;;;;;;26.77;13.63;;;;;;;13.13;100.00;95600.19;5010128;28;20073;-88
2022/12/31 08:36:28;;;;;;;30.17;14.07;;;;;;;13.31;100.00;95600.81;5020519;28;20058;-88
2022/12/31 08:39:14;;;;;;;32.60;14.63;;;;;;;12.65;100.00;95599.31;5002909;28;20045;-90
2022/12/31 08:41:47;;;;;;;29.23;14.55;;;;;;;12.89;100.00;95617.38;5003381;28;20036;-88
2022/12/31 08:44:36;;;;;;;44.35;15.57;;;;;;;12.81;100.00;95611.53;5003251;28;20458;-88
2022/12/31 08:47:35;;;;;;;47.72;16.35;;;;;;;12.54;100.00;95608.91;5002844;28;20083;-90
2022/12/31 08:50:15;;;;;;;1188.93;280.95;;;;;;;13.10;100.00;95603.34;5002935;28;20038;-88
2022/12/31 08:52:40;;;;;;;1999.90;999.90;;;;;;;13.15;100.00;95597.31;5003177;28;20339;-89
2022/12/31 08:55:06;;;;;;;348.42;134.68;;;;;;;13.09;100.00;95595.69;4986997;28;20034;-90
2022/12/31 08:57:44;;;;;;;83.50;40.58;;;;;;;13.28;100.00;95598.72;5002605;28;20033;-88
2022/12/31 09:00:17;;;;;;;96.68;31.50;;;;;;;12.57;100.00;95593.44;5002493;28;20029;-90
2022/12/31 09:02:47;;;;;;;46.88;19.27;;;;;;;12.61;100.00;95603.44;5002234;28;20061;-90
2022/12/31 09:05:41;;;;;;;35.53;16.00;;;;;;;12.64;100.00;95613.50;5002106;28;20132;-89
2022/12/31 09:08:19;;;;;;;32.47;16.20;;;;;;;12.42;100.00;95607.25;5002000;28;20033;-89
2022/12/31 09:10:53;;;;;;;27.95;15.35;;;;;;;12.28;100.00;95612.09;5001332;28;20025;-90
2022/12/31 09:13:35;;;;;;;33.30;16.65;;;;;;;12.47;100.00;95622.25;5002085;28;20131;-89
2022/12/31 09:16:03;;;;;;;34.00;17.35;;;;;;;12.54;100.00;95622.84;5001548;28;20069;-89
2022/12/31 09:18:29;;;;;;;38.33;18.75;;;;;;;12.86;100.00;95629.19;5001172;28;20034;-89
2022/12/31 09:20:55;;;;;;;35.20;18.05;;;;;;;12.81;100.00;95629.94;5001307;28;20091;-90
2022/12/31 09:23:21;;;;;;;36.33;17.38;;;;;;;12.71;100.00;95627.22;5001402;28;20093;-89
2022/12/31 09:26:24;;;;;;;40.17;17.27;;;;;;;12.91;100.00;95634.50;5001408;28;20083;-89
2022/12/31 09:28:58;;;;;;;33.55;17.65;;;;;;;12.77;100.00;95641.19;5001789;28;20029;-89
2022/12/31 09:31:44;;;;;;;36.70;16.85;;;;;;;12.67;100.00;95653.19;5001112;28;20132;-90
2022/12/31 09:34:23;;;;;;;34.75;17.45;;;;;;;12.77;100.00;95649.09;5001132;28;20128;-89
2022/12/31 09:36:51;;;;;;;33.13;17.83;;;;;;;12.94;100.00;95649.00;5001255;28;20088;-89
2022/12/31 09:39:39;;;;;;;891.40;253.98;;;;;;;13.12;100.00;95658.31;4985055;28;20422;-88
2022/12/31 09:42:11;;;;;;;1999.90;622.03;;;;;;;12.77;100.00;95660.41;5001432;28;20353;-88
2022/12/31 09:44:57;;;;;;;356.83;55.22;;;;;;;12.06;100.00;95661.25;5000902;28;20034;-89
2022/12/31 09:47:50;;;;;;;81.35;25.02;;;;;;;12.58;100.00;95652.09;5000919;28;20347;-90
2022/12/31 09:50:33;;;;;;;35.93;18.07;;;;;;;12.62;100.00;95641.84;5000849;28;20080;-89
2022/12/31 09:53:17;;;;;;;;;;;;;;;12.92;100.00;95643.97;5001258;28;20033;-89
2022/12/31 09:56:02;;;;;;;43.22;18.92;;;;;;;12.67;100.00;95644.53;5000712;28;19917;-88
2022/12/31 09:58:41;;;;;;;51.95;20.45;;;;;;;12.78;100.00;95630.44;5001672;28;20136;-89
2022/12/31 10:01:30;;;;;;;46.13;20.08;;;;;;;13.14;100.00;95630.72;5000591;28;20128;-89
2022/12/31 10:04:03;;;;;;;64.10;19.10;;;;;;;13.10;100.00;95621.75;5018125;28;20519;-89
2022/12/31 10:06:47;;;;;;;49.83;17.95;;;;;;;12.84;100.00;95629.44;5000468;28;20069;-89
2022/12/31 10:09:22;;;;;;;31.95;17.10;;;;;;;12.75;100.00;95630.91;5000582;28;20180;-89
2022/12/31 10:12:14;;;;;;;38.90;16.83;;;;;;;12.91;100.00;95634.50;4984402;28;20083;-89
2022/12/31 10:14:52;;;;;;;48.78;15.57;;;;;;;13.11;100.00;95633.84;4963481;28;20037;-88
2022/12/31 10:17:52;;;;;;;63.60;18.08;;;;;;;13.45;100.00;95634.63;5000254;28;20439;-88
2022/12/31 10:20:42;;;;;;;35.83;16.85;;;;;;;13.37;100.00;95633.25;5000403;28;20026;-89
2022/12/31 10:23:36;;;;;;;59.50;20.27;;;;;;;13.08;100.00;95618.59;5017572;28;20025;-88
2022/12/31 10:26:10;;;;;;;44.20;17.73;;;;;;;13.24;100.00;95608.94;5000374;28;20053;-89
2022/12/31 10:28:53;;;;;;;72.68;21.60;;;;;;;13.30;100.00;95617.66;5000500;28;20057;-89
2022/12/31 10:31:57;;;;;;;57.65;21.35;;;;;;;13.59;100.00;95621.84;5000501;28;20029;-90
2022/12/31 10:34:33;;;;;;;36.17;16.80;;;;;;;13.36;100.00;95611.41;5017577;28;20021;-90
2022/12/31 10:37:14;;;;;;;53.15;19.15;;;;;;;13.39;100.00;95618.78;5000576;28;20379;-90
2022/12/31 10:39:51;;;;;;;74.40;22.67;;;;;;;13.66;100.00;95611.84;5011732;28;20040;-91
2022/12/31 10:43:27;;;;;;;94.00;26.23;;;;;;;13.95;100.00;95612.25;5023188;28;20032;-91
2022/12/31 10:46:11;;;;;;;57.75;19.55;;;;;;;13.78;100.00;95615.06;5053949;28;20029;-91
2022/12/31 10:49:04;;;;;;;46.92;17.63;;;;;;;14.02;100.00;95613.84;5039517;28;20368;-91
2022/12/31 10:51:52;;;;;;;57.90;22.58;;;;;;;14.19;100.00;95609.16;5023385;28;20031;-91
2022/12/31 10:54:31;;;;;;;38.85;18.63;;;;;;;14.26;100.00;95599.16;5039021;28;20025;-91
2022/12/31 10:57:22;;;;;;;68.97;21.40;;;;;;;14.41;100.00;95603.66;5039336;28;20083;-91
2022/12/31 11:00:19;;;;;;;27.58;15.35;;;;;;;14.54;100.00;95598.94;5039704;28;20024;-91
2022/12/31 11:02:48;;;;;;;54.45;18.05;;;;;;;14.72;100.00;95604.81;5039475;28;20074;-90
2022/12/31 11:05:49;;;;;;;53.40;22.75;;;;;;;14.74;100.00;95592.94;5057185;28;20079;-91
2022/12/31 11:08:52;;;;;;;50.97;19.70;;;;;;;15.05;100.00;95606.13;5022952;28;20024;-92
2022/12/31 11:11:30;;;;;;;105.70;36.03;;;;;;;14.95;100.00;95595.59;5039229;28;20039;-93
2022/12/31 11:14:36;;;;;;;52.72;25.30;;;;;;;15.08;100.00;95602.97;5039235;28;20020;-93
2022/12/31 11:17:26;;;;;;;32.45;17.98;;;;;;;15.19;100.00;95597.66;5039237;28;20428;-93
2022/12/31 11:20:13;;;;;;;33.38;16.52;;;;;;;15.35;100.00;95590.53;5039125;28;20032;-93
2022/12/31 11:22:51;;;;;;;25.90;14.25;;;;;;;15.54;100.00;95575.69;5039239;28;20346;-93
2022/12/31 11:29:01;;;;;;;28.92;14.57;;;;;;;15.88;100.00;95582.16;5056708;28;20036;-93
2022/12/31 11:31:33;;;;;;;37.65;16.52;;;;;;;15.90;100.00;95569.50;5039237;28;20110;-91
2022/12/31 11:34:13;;;;;;;29.77;13.80;;;;;;;16.00;100.00;95567.88;5041877;28;20029;-89
2022/12/31 11:37:07;;;;;;;72.93;25.95;;;;;;;15.25;100.00;95572.84;5006625;28;20127;-89
2022/12/31 11:39:46;;;;;;;21.25;10.10;;;;;;;15.75;100.00;95564.25;5024220;28;20125;-89
2022/12/31 11:42:15;;;;;;;18.25;9.73;;;;;;;16.14;100.00;95578.63;5020085;28;20091;-89
2022/12/31 11:44:52;;;;;;;19.13;10.30;;;;;;;16.14;100.00;95573.34;5002867;28;20064;-89
2022/12/31 11:47:42;;;;;;;80.40;29.05;;;;;;;16.31;100.00;95567.72;5002894;28;20033;-89
2022/12/31 11:50:27;;;;;;;57.88;19.33;;;;;;;16.30;100.00;95574.06;5003004;28;20083;-90